Steffenville, Missouri
Current Conditions -  °F | °C
As of 1:55 PM on Monday 26 Jan 2015 (Local Time) from KIRK Reporting Station
Clear Clear  
Wind Chill: 44°   Ceiling: Unl
Heat Index: 49°   Visibility: 10mi
Dew Point: 37°   Wind: 13mph
Humidity: 64%   Direction: 280°W
Pressure: 29.82"   Gusts: NA
Location:  40.1039°N, 91.9128°W
Report Text: KIRK 261955Z AUTO 28011KT 10SM CLR 09/03 A2982 RMK AO2 SLP107 T00940028 $
Loading
Personal Weather Stations






























Interactive Weather Map New forecast layout! Learn more

10-Day Weather Forecast

Advertisements
Track Severe Weather on mobile